Time;durP1;ratioP1;P1;durP2;ratioP2;P2;SDS_P1;SDS_P2;PMS_P1;PMS_P2;Temp;Humidity;BMP_temperature;BMP_pressure;BME280_temperature;BME280_humidity;BME280_pressure;Samples;Min_cycle;Max_cycle;Signal;HPM_P1;HPM_P2
2020/12/23 00:01:47;;;;;;;193.18;100.43;;;;;;;;;;5099169;28;20406;-82
2020/12/23 00:04:13;;;;;;;178.18;98.30;;;;;;;;;;5099189;28;20034;-82
2020/12/23 00:06:39;;;;;;;186.25;101.40;;;;;;;;;;5099080;28;20466;-82
2020/12/23 00:09:06;;;;;;;172.55;97.85;;;;;;;;;;5099200;28;20028;-82
2020/12/23 00:11:35;;;;;;;195.93;102.88;;;;;;;;;;5099298;28;20040;-82
2020/12/23 00:14:01;;;;;;;191.10;101.57;;;;;;;;;;5099387;28;20031;-82
2020/12/23 00:16:27;;;;;;;185.45;100.20;;;;;;;;;;5098851;28;20093;-83
2020/12/23 00:18:53;;;;;;;189.40;100.57;;;;;;;;;;5098296;28;20051;-81
2020/12/23 00:21:38;;;;;;;188.55;101.13;;;;;;;;;;5080858;28;20031;-83
2020/12/23 00:24:04;;;;;;;179.55;97.88;;;;;;;;;;5098979;28;20016;-82
2020/12/23 00:26:30;;;;;;;176.90;96.28;;;;;;;;;;5080858;28;20122;-81
2020/12/23 00:28:56;;;;;;;172.68;96.85;;;;;;;;;;5098808;28;20034;-81
2020/12/23 00:31:22;;;;;;;170.88;94.32;;;;;;;;;;5098743;28;20069;-82
2020/12/23 00:33:48;;;;;;;169.52;93.13;;;;;;;;;;5098715;28;20032;-82
2020/12/23 00:39:18;;;;;;;171.50;92.75;;;;;;;;;;5098700;28;20466;-81
2020/12/23 00:41:44;;;;;;;164.48;91.93;;;;;;;;;;5098315;28;20028;-80
2020/12/23 00:44:10;;;;;;;166.15;91.35;;;;;;;;;;5079649;28;20035;-80
2020/12/23 00:46:36;;;;;;;158.68;88.88;;;;;;;;;;5079750;28;20043;-80
2020/12/23 00:49:02;;;;;;;158.48;88.18;;;;;;;;;;5080026;28;20020;-80
2020/12/23 00:51:28;;;;;;;162.48;87.45;;;;;;;;;;5098105;28;20099;-80
2020/12/23 00:53:54;;;;;;;159.27;89.00;;;;;;;;;;5097916;28;20028;-79
2020/12/23 00:56:20;;;;;;;164.80;90.32;;;;;;;;;;5098244;28;20070;-79
2020/12/23 00:58:46;;;;;;;165.45;91.75;;;;;;;;;;5097899;28;20052;-80
2020/12/23 01:01:14;;;;;;;174.43;94.03;;;;;;;;;;5097783;28;20028;-80
2020/12/23 01:03:40;;;;;;;175.00;97.32;;;;;;;;;;5097747;28;20028;-80
2020/12/23 01:06:06;;;;;;;177.00;96.00;;;;;;;;;;5097648;28;20036;-79
2020/12/23 01:08:32;;;;;;;180.85;98.43;;;;;;;;;;5097646;28;20069;-80
2020/12/23 01:10:59;;;;;;;181.13;100.28;;;;;;;;;;5097723;28;20110;-80
2020/12/23 01:13:25;;;;;;;166.40;95.60;;;;;;;;;;5097478;28;20031;-80
2020/12/23 01:15:51;;;;;;;164.02;94.63;;;;;;;;;;5097388;28;20398;-79
2020/12/23 01:18:17;;;;;;;155.48;89.65;;;;;;;;;;5097446;28;20421;-80
2020/12/23 01:20:43;;;;;;;156.77;87.13;;;;;;;;;;5097749;28;20352;-80
2020/12/23 01:23:09;;;;;;;168.50;93.95;;;;;;;;;;5097696;28;20313;-80
2020/12/23 01:25:35;;;;;;;166.38;91.10;;;;;;;;;;5097506;28;20323;-81
2020/12/23 01:28:01;;;;;;;167.00;94.47;;;;;;;;;;5097480;28;20352;-81
2020/12/23 01:30:27;;;;;;;179.32;100.68;;;;;;;;;;5079843;28;20459;-82
2020/12/23 01:32:53;;;;;;;180.30;103.35;;;;;;;;;;5079942;28;20321;-83
2020/12/23 01:35:19;;;;;;;185.98;102.88;;;;;;;;;;5097640;28;20373;-82
2020/12/23 01:37:46;;;;;;;181.68;101.88;;;;;;;;;;5097776;28;20055;-81
2020/12/23 01:40:12;;;;;;;180.25;101.55;;;;;;;;;;5097503;28;20459;-82
2020/12/23 01:42:38;;;;;;;186.30;106.05;;;;;;;;;;5097777;28;20024;-81
2020/12/23 01:45:05;;;;;;;199.63;106.40;;;;;;;;;;5079477;28;20035;-81
2020/12/23 01:47:32;;;;;;;196.00;106.72;;;;;;;;;;5097368;28;20452;-81
2020/12/23 01:49:58;;;;;;;185.73;105.40;;;;;;;;;;5097519;28;20295;-82
2020/12/23 01:52:25;;;;;;;195.35;103.45;;;;;;;;;;5099127;28;20020;-81
2020/12/23 01:54:51;;;;;;;196.27;104.25;;;;;;;;;;5101652;28;20024;-81
2020/12/23 01:57:17;;;;;;;192.95;102.75;;;;;;;;;;5101517;28;20016;-84
2020/12/23 01:59:44;;;;;;;171.98;96.10;;;;;;;;;;5102154;28;20032;-85
2020/12/23 02:02:16;;;;;;;174.68;93.35;;;;;;;;;;5101918;28;20034;-85
2020/12/23 02:04:42;;;;;;;166.02;88.45;;;;;;;;;;5101698;28;20020;-81
2020/12/23 02:07:08;;;;;;;156.98;87.18;;;;;;;;;;5083426;28;20471;-81
2020/12/23 02:09:37;;;;;;;154.63;83.10;;;;;;;;;;5101276;28;20024;-81
2020/12/23 02:12:03;;;;;;;152.05;83.90;;;;;;;;;;5101217;28;20056;-81
2020/12/23 02:14:29;;;;;;;148.13;82.55;;;;;;;;;;5101248;28;20042;-80
2020/12/23 02:16:55;;;;;;;157.57;83.68;;;;;;;;;;5100820;28;20042;-81
2020/12/23 02:19:21;;;;;;;144.38;83.50;;;;;;;;;;5101104;28;20016;-81
2020/12/23 02:21:48;;;;;;;154.02;86.03;;;;;;;;;;5100956;28;20027;-81
2020/12/23 02:24:14;;;;;;;168.18;89.10;;;;;;;;;;5101012;28;20069;-81
2020/12/23 02:26:40;;;;;;;165.10;88.47;;;;;;;;;;5100905;28;20061;-81
2020/12/23 02:29:06;;;;;;;155.68;87.93;;;;;;;;;;5100900;28;20031;-80
2020/12/23 02:31:32;;;;;;;161.63;88.90;;;;;;;;;;5101211;28;20358;-81
2020/12/23 02:33:58;;;;;;;162.98;90.40;;;;;;;;;;5082395;28;20368;-81
2020/12/23 02:36:24;;;;;;;170.90;91.68;;;;;;;;;;5100942;28;20042;-81
2020/12/23 02:38:50;;;;;;;178.15;95.38;;;;;;;;;;5100798;28;20020;-81
2020/12/23 02:41:16;;;;;;;172.02;93.15;;;;;;;;;;5100818;28;20077;-82
2020/12/23 02:43:42;;;;;;;177.07;95.03;;;;;;;;;;5100902;28;20055;-81
2020/12/23 02:46:08;;;;;;;176.43;94.28;;;;;;;;;;5100609;28;20028;-81
2020/12/23 02:48:34;;;;;;;172.55;93.03;;;;;;;;;;5100792;28;20024;-83
2020/12/23 02:51:00;;;;;;;170.68;91.85;;;;;;;;;;5100911;28;20061;-83
2020/12/23 02:53:26;;;;;;;164.18;92.60;;;;;;;;;;5100885;28;20028;-83
2020/12/23 02:55:52;;;;;;;167.50;90.93;;;;;;;;;;5082862;28;20024;-83
2020/12/23 02:58:18;;;;;;;162.73;86.82;;;;;;;;;;5100377;28;20024;-81
2020/12/23 03:00:44;;;;;;;153.52;85.90;;;;;;;;;;5100277;28;20107;-81
2020/12/23 03:03:10;;;;;;;165.43;86.60;;;;;;;;;;5100134;28;20027;-81
2020/12/23 03:05:36;;;;;;;152.60;82.70;;;;;;;;;;5100437;28;20024;-81
2020/12/23 03:08:03;;;;;;;151.18;81.55;;;;;;;;;;5100526;28;20103;-81
2020/12/23 03:10:29;;;;;;;153.68;83.00;;;;;;;;;;5100029;28;20406;-82
2020/12/23 03:12:55;;;;;;;145.50;81.57;;;;;;;;;;5100198;28;20377;-82
2020/12/23 03:15:21;;;;;;;152.13;81.60;;;;;;;;;;5100023;28;20425;-81
2020/12/23 03:17:47;;;;;;;138.52;79.00;;;;;;;;;;5099595;28;20044;-81
2020/12/23 03:23:17;;;;;;;140.27;78.07;;;;;;;;;;5099911;28;20035;-80
2020/12/23 03:25:43;;;;;;;138.88;78.65;;;;;;;;;;5099769;28;20024;-81
2020/12/23 03:28:09;;;;;;;141.23;78.20;;;;;;;;;;5081489;28;20074;-81
2020/12/23 03:30:35;;;;;;;143.35;78.00;;;;;;;;;;5100096;28;20032;-81
2020/12/23 03:33:01;;;;;;;140.88;78.22;;;;;;;;;;5099735;28;20035;-81
2020/12/23 03:35:27;;;;;;;139.63;77.07;;;;;;;;;;5099352;28;20016;-81
2020/12/23 03:37:53;;;;;;;132.25;77.07;;;;;;;;;;5099877;28;20020;-80
2020/12/23 03:40:19;;;;;;;141.02;78.07;;;;;;;;;;5099225;28;20104;-82
2020/12/23 03:42:45;;;;;;;136.73;76.55;;;;;;;;;;5081333;28;20044;-82
2020/12/23 03:45:11;;;;;;;146.27;78.85;;;;;;;;;;5099617;28;20027;-81
2020/12/23 03:47:37;;;;;;;142.18;78.93;;;;;;;;;;5099561;28;20024;-81
2020/12/23 03:50:04;;;;;;;140.23;77.82;;;;;;;;;;5081026;28;20402;-81
2020/12/23 03:52:30;;;;;;;137.05;77.47;;;;;;;;;;5099065;28;20036;-81
2020/12/23 03:54:56;;;;;;;143.15;77.03;;;;;;;;;;5099074;28;20111;-81
2020/12/23 03:57:22;;;;;;;136.32;78.32;;;;;;;;;;5099584;28;20020;-83
2020/12/23 03:59:48;;;;;;;142.80;77.25;;;;;;;;;;5099765;28;20016;-83
2020/12/23 04:02:14;;;;;;;134.25;77.88;;;;;;;;;;5099322;28;20357;-82
2020/12/23 04:04:40;;;;;;;134.90;76.00;;;;;;;;;;5099480;28;20024;-82
2020/12/23 04:10:10;;;;;;;144.15;75.32;;;;;;;;;;5099142;28;20078;-81
2020/12/23 04:12:36;;;;;;;140.38;76.75;;;;;;;;;;5098807;28;20465;-81
2020/12/23 04:15:04;;;;;;;141.63;74.47;;;;;;;;;;5098338;28;20055;-82
2020/12/23 04:17:30;;;;;;;141.65;76.82;;;;;;;;;;5098819;28;20093;-82
2020/12/23 04:19:56;;;;;;;136.85;75.18;;;;;;;;;;5099087;28;20031;-81
2020/12/23 04:22:40;;;;;;;137.93;76.70;;;;;;;;;;5098629;28;20409;-80
2020/12/23 04:25:07;;;;;;;129.13;74.38;;;;;;;;;;5071159;28;20501;-79
2020/12/23 04:27:34;;;;;;;136.43;76.15;;;;;;;;;;5078459;28;20369;-80
2020/12/23 04:30:01;;;;;;;130.45;76.13;;;;;;;;;;5078140;28;20033;-81
2020/12/23 04:32:27;;;;;;;132.65;72.82;;;;;;;;;;5078305;28;20296;-81
2020/12/23 04:34:53;;;;;;;132.85;74.20;;;;;;;;;;5078146;28;20032;-81
2020/12/23 04:40:22;;;;;;;124.90;71.00;;;;;;;;;;5078041;28;20035;-82
2020/12/23 04:42:49;;;;;;;121.97;68.60;;;;;;;;;;5078102;28;20074;-82
2020/12/23 04:45:16;;;;;;;124.30;69.63;;;;;;;;;;5077919;28;20108;-82
2020/12/23 04:47:43;;;;;;;124.30;68.05;;;;;;;;;;5078176;28;20078;-80
2020/12/23 04:50:09;;;;;;;135.45;74.35;;;;;;;;;;5077895;28;20026;-82
2020/12/23 04:52:36;;;;;;;127.68;72.60;;;;;;;;;;5077721;28;20029;-80
2020/12/23 04:55:06;;;;;;;142.23;80.93;;;;;;;;;;5077701;28;20061;-79
2020/12/23 04:57:35;;;;;;;142.48;80.88;;;;;;;;;;5077807;28;20437;-82
2020/12/23 05:00:01;;;;;;;143.52;80.25;;;;;;;;;;5077811;28;20027;-81
2020/12/23 05:02:27;;;;;;;143.15;78.57;;;;;;;;;;5077652;28;20056;-81
2020/12/23 05:04:54;;;;;;;128.23;73.20;;;;;;;;;;5077871;28;20029;-81
2020/12/23 05:07:20;;;;;;;127.45;71.75;;;;;;;;;;5077451;28;20111;-82
2020/12/23 05:09:50;;;;;;;129.25;71.97;;;;;;;;;;5077272;28;20032;-81
2020/12/23 05:12:18;;;;;;;125.28;70.38;;;;;;;;;;5077715;28;20048;-81
2020/12/23 05:14:45;;;;;;;126.43;69.88;;;;;;;;;;5077483;28;20020;-82
2020/12/23 05:17:11;;;;;;;123.80;69.57;;;;;;;;;;5077386;28;20036;-81
2020/12/23 05:19:38;;;;;;;121.95;67.00;;;;;;;;;;5077448;28;20116;-81
2020/12/23 05:22:05;;;;;;;123.15;68.50;;;;;;;;;;5077682;28;20313;-80
2020/12/23 05:24:33;;;;;;;126.22;69.60;;;;;;;;;;5077318;28;20115;-80
2020/12/23 05:27:00;;;;;;;129.65;71.90;;;;;;;;;;5076497;28;20025;-80
2020/12/23 05:29:26;;;;;;;126.63;71.55;;;;;;;;;;5077251;28;20032;-81
2020/12/23 05:31:52;;;;;;;138.73;76.57;;;;;;;;;;5077278;28;20029;-81
2020/12/23 05:34:19;;;;;;;131.25;74.40;;;;;;;;;;5077084;28;20057;-81
2020/12/23 05:36:46;;;;;;;138.07;75.13;;;;;;;;;;5077418;28;20020;-81
2020/12/23 05:39:12;;;;;;;133.73;74.10;;;;;;;;;;5077228;28;20020;-82
2020/12/23 05:41:38;;;;;;;133.63;77.05;;;;;;;;;;5059624;28;20331;-83
2020/12/23 05:44:20;;;;;;;135.05;75.03;;;;;;;;;;5077774;28;20029;-83
2020/12/23 05:46:50;;;;;;;128.13;72.10;;;;;;;;;;5077316;28;20040;-82
2020/12/23 05:49:16;;;;;;;136.23;71.85;;;;;;;;;;5077278;28;20028;-82
2020/12/23 05:52:01;;;;;;;128.40;71.95;;;;;;;;;;5077109;28;20029;-82
2020/12/23 05:54:28;;;;;;;124.82;69.30;;;;;;;;;;5059353;28;20032;-80
2020/12/23 05:56:54;;;;;;;131.55;73.38;;;;;;;;;;5059245;28;20017;-81
2020/12/23 05:59:20;;;;;;;134.75;72.57;;;;;;;;;;5077013;28;20016;-81
2020/12/23 06:01:48;;;;;;;137.70;71.25;;;;;;;;;;5076745;28;20025;-81
2020/12/23 06:04:15;;;;;;;122.47;68.15;;;;;;;;;;5076990;28;20054;-81
2020/12/23 06:07:03;;;;;;;133.00;72.13;;;;;;;;;;5076917;28;20025;-81
2020/12/23 06:09:31;;;;;;;133.98;71.35;;;;;;;;;;5076599;28;20021;-81
2020/12/23 06:12:06;;;;;;;138.60;74.45;;;;;;;;;;5076944;28;20476;-81
2020/12/23 06:14:34;;;;;;;145.45;77.45;;;;;;;;;;5076636;28;20021;-80
2020/12/23 06:17:00;;;;;;;149.73;80.60;;;;;;;;;;5058838;28;20468;-80
2020/12/23 06:19:30;;;;;;;147.20;83.50;;;;;;;;;;5076703;28;20060;-79
2020/12/23 06:21:59;;;;;;;165.15;91.93;;;;;;;;;;5076481;28;20028;-79
2020/12/23 06:24:26;;;;;;;176.85;93.85;;;;;;;;;;5058821;28;20028;-79
2020/12/23 06:26:54;;;;;;;159.10;91.47;;;;;;;;;;5076449;28;20021;-80
2020/12/23 06:29:21;;;;;;;148.68;83.72;;;;;;;;;;5076594;28;20021;-80
2020/12/23 06:31:59;;;;;;;150.18;82.40;;;;;;;;;;5058751;28;20029;-80
2020/12/23 06:34:26;;;;;;;146.20;81.22;;;;;;;;;;5058841;28;20028;-81
2020/12/23 06:36:53;;;;;;;146.07;82.45;;;;;;;;;;5076885;28;20024;-81
2020/12/23 06:39:19;;;;;;;152.40;85.40;;;;;;;;;;5079761;28;20028;-82
2020/12/23 06:41:55;;;;;;;159.02;87.40;;;;;;;;;;5080729;28;20311;-82
2020/12/23 06:44:22;;;;;;;163.00;92.15;;;;;;;;;;5080273;28;20021;-81
2020/12/23 06:47:00;;;;;;;194.73;110.53;;;;;;;;;;5080322;28;20326;-82
2020/12/23 06:49:52;;;;;;;213.95;126.85;;;;;;;;;;5062437;28;20043;-81
2020/12/23 06:52:21;;;;;;;186.77;112.88;;;;;;;;;;5057922;28;20032;-81
2020/12/23 06:54:50;;;;;;;190.98;112.00;;;;;;;;;;5080011;28;20021;-82
2020/12/23 06:57:35;;;;;;;185.27;106.82;;;;;;;;;;5080136;28;20346;-79
2020/12/23 07:00:01;;;;;;;198.80;113.90;;;;;;;;;;5079914;28;20021;-81
2020/12/23 07:02:28;;;;;;;188.45;105.88;;;;;;;;;;5079826;28;20021;-80
2020/12/23 07:04:57;;;;;;;173.52;101.40;;;;;;;;;;5079793;28;20544;-80
2020/12/23 07:07:38;;;;;;;176.85;100.05;;;;;;;;;;5079811;28;20075;-80
2020/12/23 07:10:23;;;;;;;176.18;102.85;;;;;;;;;;5079780;28;20115;-81
2020/12/23 07:12:52;;;;;;;210.55;118.10;;;;;;;;;;5079604;28;20075;-80
2020/12/23 07:15:37;;;;;;;240.45;134.35;;;;;;;;;;5079854;28;20036;-81
2020/12/23 07:18:03;;;;;;;248.25;139.02;;;;;;;;;;5059799;28;20041;-79
2020/12/23 07:20:31;;;;;;;222.43;126.18;;;;;;;;;;5059533;28;20410;-79
2020/12/23 07:23:00;;;;;;;189.82;110.05;;;;;;;;;;5059371;28;20032;-78
2020/12/23 07:25:27;;;;;;;185.98;103.15;;;;;;;;;;5041759;28;20330;-81
2020/12/23 07:27:57;;;;;;;202.35;109.55;;;;;;;;;;5059381;28;20103;-81
2020/12/23 07:30:23;;;;;;;180.00;96.72;;;;;;;;;;5059360;28;20072;-80
2020/12/23 07:33:02;;;;;;;170.23;93.88;;;;;;;;;;5041465;28;20037;-82
2020/12/23 07:35:29;;;;;;;172.10;95.03;;;;;;;;;;5059458;28;20021;-82
2020/12/23 07:37:58;;;;;;;196.63;104.93;;;;;;;;;;5041495;28;20315;-82
2020/12/23 07:40:25;;;;;;;197.40;109.63;;;;;;;;;;5059272;28;20033;-83
2020/12/23 07:42:51;;;;;;;216.07;117.35;;;;;;;;;;5059789;28;20044;-82
2020/12/23 07:45:18;;;;;;;223.52;124.82;;;;;;;;;;5059559;28;20116;-82
2020/12/23 07:47:52;;;;;;;218.63;119.40;;;;;;;;;;5059593;28;20105;-83
2020/12/23 07:50:18;;;;;;;197.98;106.28;;;;;;;;;;5040842;28;20029;-83
2020/12/23 07:52:44;;;;;;;208.35;107.10;;;;;;;;;;5058750;28;20024;-81
2020/12/23 07:55:17;;;;;;;230.68;126.53;;;;;;;;;;5041215;28;20065;-81
2020/12/23 07:57:43;;;;;;;198.55;112.22;;;;;;;;;;5062706;28;20437;-80
2020/12/23 08:00:13;;;;;;;179.23;96.80;;;;;;;;;;5059071;28;20025;-80
2020/12/23 08:02:39;;;;;;;169.35;93.35;;;;;;;;;;5058788;28;20029;-81
2020/12/23 08:05:06;;;;;;;156.23;87.60;;;;;;;;;;5058549;28;20028;-80
2020/12/23 08:07:32;;;;;;;151.30;85.28;;;;;;;;;;5040200;28;20064;-80
2020/12/23 08:10:15;;;;;;;150.25;85.18;;;;;;;;;;5040486;28;20323;-80
2020/12/23 08:12:41;;;;;;;;;;;;;;;;;;5059001;28;20120;-80
2020/12/23 08:15:10;;;;;;;160.80;88.72;;;;;;;;;;5058870;28;19959;-82
2020/12/23 08:17:37;;;;;;;197.57;114.47;;;;;;;;;;5075020;28;20071;-81
2020/12/23 08:20:05;;;;;;;176.30;101.40;;;;;;;;;;5076605;28;20441;-80
2020/12/23 08:22:32;;;;;;;173.85;102.32;;;;;;;;;;5058291;28;20057;-81
2020/12/23 08:25:27;;;;;;;169.45;98.97;;;;;;;;;;5058397;28;20029;-83
2020/12/23 08:27:54;;;;;;;194.05;101.65;;;;;;;;;;5056354;28;20056;-82
2020/12/23 08:30:20;;;;;;;166.70;91.40;;;;;;;;;;5061831;28;20036;-81
2020/12/23 08:32:52;;;;;;;164.95;91.13;;;;;;;;;;5058098;28;20128;-80
2020/12/23 08:35:18;;;;;;;212.38;109.57;;;;;;;;;;5058247;28;20482;-81
2020/12/23 08:37:44;;;;;;;200.38;104.82;;;;;;;;;;5077902;28;20110;-81
2020/12/23 08:40:13;;;;;;;221.80;116.20;;;;;;;;;;5089461;28;20029;-81
2020/12/23 08:42:39;;;;;;;247.20;123.22;;;;;;;;;;5058317;28;20059;-82
2020/12/23 08:45:05;;;;;;;164.98;90.47;;;;;;;;;;5069665;28;20067;-82
2020/12/23 08:47:33;;;;;;;204.80;100.10;;;;;;;;;;5074966;28;20330;-82
2020/12/23 08:49:59;;;;;;;157.55;84.30;;;;;;;;;;5040207;28;20037;-82
2020/12/23 08:52:26;;;;;;;205.82;96.10;;;;;;;;;;5058138;28;20318;-82
2020/12/23 08:54:52;;;;;;;167.25;86.93;;;;;;;;;;5058064;28;20032;-82
2020/12/23 08:57:25;;;;;;;168.00;88.93;;;;;;;;;;5077038;28;20024;-81
2020/12/23 08:59:52;;;;;;;167.25;86.80;;;;;;;;;;5075875;28;20028;-78
2020/12/23 09:02:18;;;;;;;178.85;90.43;;;;;;;;;;5076056;28;20091;-77
2020/12/23 09:04:44;;;;;;;173.50;86.63;;;;;;;;;;5075755;28;20025;-78
2020/12/23 09:07:10;;;;;;;197.63;92.32;;;;;;;;;;5062215;28;20093;-77
2020/12/23 09:09:37;;;;;;;113.75;63.97;;;;;;;;;;5057379;28;20040;-80
2020/12/23 09:12:04;;;;;;;122.30;68.90;;;;;;;;;;5057655;28;20071;-84
2020/12/23 09:14:30;;;;;;;118.57;66.82;;;;;;;;;;5058203;28;20024;-84
2020/12/23 09:17:06;;;;;;;129.05;72.72;;;;;;;;;;5058006;28;20037;-85
2020/12/23 09:19:45;;;;;;;109.50;60.55;;;;;;;;;;5057776;28;20027;-85
2020/12/23 09:22:11;;;;;;;119.22;65.38;;;;;;;;;;5058045;28;20021;-84
2020/12/23 09:24:38;;;;;;;108.35;61.63;;;;;;;;;;5057971;28;20048;-85
2020/12/23 09:27:19;;;;;;;97.55;54.17;;;;;;;;;;5057946;28;20067;-84
2020/12/23 09:29:45;;;;;;;97.93;56.42;;;;;;;;;;5057806;28;20395;-84
2020/12/23 09:32:11;;;;;;;98.47;55.80;;;;;;;;;;5057678;28;20024;-84
2020/12/23 09:34:38;;;;;;;94.43;53.13;;;;;;;;;;5039756;28;20044;-84
2020/12/23 09:37:05;;;;;;;98.68;52.55;;;;;;;;;;5057469;28;20021;-84
2020/12/23 09:39:31;;;;;;;84.95;49.20;;;;;;;;;;5057195;28;20108;-84
2020/12/23 09:42:15;;;;;;;83.97;48.58;;;;;;;;;;5057715;28;20082;-87
2020/12/23 09:44:41;;;;;;;89.60;51.13;;;;;;;;;;5056791;28;20014;-76
2020/12/23 09:47:07;;;;;;;90.55;49.97;;;;;;;;;;5057035;28;20395;-76
2020/12/23 09:49:33;;;;;;;73.70;44.67;;;;;;;;;;5056739;28;20293;-77
2020/12/23 09:52:01;;;;;;;75.13;44.83;;;;;;;;;;5056575;28;20112;-77
2020/12/23 09:54:27;;;;;;;72.82;44.70;;;;;;;;;;5056839;28;20032;-76
2020/12/23 09:56:55;;;;;;;86.00;47.00;;;;;;;;;;5056667;28;20504;-77
2020/12/23 09:59:21;;;;;;;82.25;47.03;;;;;;;;;;5057004;28;20025;-77
2020/12/23 10:01:47;;;;;;;72.68;43.42;;;;;;;;;;5056664;28;20024;-76
2020/12/23 10:04:14;;;;;;;79.97;45.45;;;;;;;;;;5056841;28;20052;-76
2020/12/23 10:06:40;;;;;;;78.47;45.47;;;;;;;;;;5056934;28;20319;-77
2020/12/23 10:09:06;;;;;;;68.25;41.15;;;;;;;;;;5056652;28;20036;-77
2020/12/23 10:11:33;;;;;;;66.82;42.63;;;;;;;;;;5056637;28;20076;-77
2020/12/23 10:14:01;;;;;;;70.20;43.53;;;;;;;;;;5059340;28;20025;-77
2020/12/23 10:16:31;;;;;;;69.55;42.45;;;;;;;;;;5060432;28;20043;-77
2020/12/23 10:18:57;;;;;;;245.80;154.15;;;;;;;;;;5060677;28;20025;-77
2020/12/23 10:21:23;;;;;;;74.38;45.92;;;;;;;;;;5060548;28;20048;-77
2020/12/23 10:23:49;;;;;;;76.32;46.78;;;;;;;;;;5042787;28;20032;-76
2020/12/23 10:26:16;;;;;;;74.45;41.60;;;;;;;;;;5060363;28;20028;-76
2020/12/23 10:28:42;;;;;;;77.10;46.35;;;;;;;;;;5060467;28;20021;-77
2020/12/23 10:31:08;;;;;;;65.22;40.85;;;;;;;;;;5060444;28;20025;-77
2020/12/23 10:33:34;;;;;;;63.08;40.00;;;;;;;;;;5060544;28;20326;-77
2020/12/23 10:36:01;;;;;;;69.88;40.75;;;;;;;;;;5060472;28;20411;-77
2020/12/23 10:38:28;;;;;;;74.38;43.58;;;;;;;;;;5060014;28;20112;-76
2020/12/23 10:40:56;;;;;;;70.97;42.55;;;;;;;;;;5060152;28;20033;-77
2020/12/23 10:43:22;;;;;;;61.97;37.63;;;;;;;;;;5060070;28;20060;-78
2020/12/23 10:45:48;;;;;;;66.72;41.10;;;;;;;;;;5060076;28;20407;-76
2020/12/23 10:48:14;;;;;;;73.32;43.33;;;;;;;;;;5059939;28;20021;-76
2020/12/23 10:50:40;;;;;;;76.75;44.58;;;;;;;;;;5059969;28;20021;-77
2020/12/23 10:53:06;;;;;;;62.42;39.17;;;;;;;;;;5059957;28;20029;-77
2020/12/23 10:55:33;;;;;;;57.50;35.35;;;;;;;;;;5059853;28;20040;-77
2020/12/23 10:57:59;;;;;;;68.45;39.35;;;;;;;;;;5059999;28;20064;-77
2020/12/23 11:00:25;;;;;;;59.40;33.53;;;;;;;;;;5059797;28;20419;-76
2020/12/23 11:02:51;;;;;;;65.22;38.92;;;;;;;;;;5059745;28;20025;-77
2020/12/23 11:05:17;;;;;;;46.47;29.92;;;;;;;;;;5059783;28;20082;-77
2020/12/23 11:07:43;;;;;;;49.45;28.90;;;;;;;;;;5059642;28;20025;-77
2020/12/23 11:10:09;;;;;;;52.25;32.42;;;;;;;;;;5059989;28;20029;-76
2020/12/23 11:12:35;;;;;;;45.55;28.13;;;;;;;;;;5059622;28;20033;-76
2020/12/23 11:15:01;;;;;;;52.25;31.92;;;;;;;;;;5059589;28;20033;-78
2020/12/23 11:17:27;;;;;;;55.53;35.38;;;;;;;;;;5059349;28;20029;-78
2020/12/23 11:19:54;;;;;;;69.70;42.92;;;;;;;;;;5059628;28;20314;-78
2020/12/23 11:22:20;;;;;;;79.88;49.33;;;;;;;;;;5059213;28;20416;-79
2020/12/23 11:24:47;;;;;;;56.88;38.42;;;;;;;;;;5058082;28;20039;-78
2020/12/23 11:27:13;;;;;;;60.80;38.90;;;;;;;;;;5059228;28;20025;-79
2020/12/23 11:29:39;;;;;;;57.95;38.75;;;;;;;;;;5059250;28;20115;-78
2020/12/23 11:32:05;;;;;;;95.70;59.13;;;;;;;;;;5059189;28;20060;-78
2020/12/23 11:34:31;;;;;;;50.42;30.13;;;;;;;;;;5059100;28;20025;-78
2020/12/23 11:36:57;;;;;;;49.13;28.83;;;;;;;;;;5059139;28;20024;-78
2020/12/23 11:39:23;;;;;;;38.17;21.50;;;;;;;;;;5059455;28;20029;-78
2020/12/23 11:41:53;;;;;;;32.25;20.08;;;;;;;;;;5059214;28;20028;-78
2020/12/23 11:44:19;;;;;;;36.10;22.02;;;;;;;;;;5059078;28;20031;-79
2020/12/23 11:46:48;;;;;;;263.30;89.93;;;;;;;;;;5059128;28;20021;-78
2020/12/23 11:49:14;;;;;;;39.25;25.33;;;;;;;;;;5058933;28;20025;-79
2020/12/23 11:51:40;;;;;;;38.72;23.67;;;;;;;;;;5058784;28;20029;-78
2020/12/23 11:54:07;;;;;;;35.95;23.55;;;;;;;;;;5058774;28;20032;-78
2020/12/23 11:56:33;;;;;;;109.63;43.75;;;;;;;;;;5058721;28;20021;-78
2020/12/23 11:58:59;;;;;;;89.38;37.03;;;;;;;;;;5058965;28;20025;-78
2020/12/23 12:01:25;;;;;;;45.22;23.85;;;;;;;;;;5040607;28;20025;-79
2020/12/23 12:03:51;;;;;;;79.10;32.00;;;;;;;;;;5058674;28;20028;-78
2020/12/23 12:06:22;;;;;;;46.03;24.08;;;;;;;;;;5058696;28;20116;-79
2020/12/23 12:08:48;;;;;;;64.97;33.15;;;;;;;;;;5058483;28;20040;-78
2020/12/23 12:11:17;;;;;;;56.60;28.77;;;;;;;;;;5058192;28;20063;-75
2020/12/23 12:13:44;;;;;;;35.67;20.70;;;;;;;;;;5040718;28;20032;-79
2020/12/23 12:16:10;;;;;;;42.63;24.17;;;;;;;;;;5058435;28;20041;-78
2020/12/23 12:18:36;;;;;;;139.98;50.03;;;;;;;;;;5040724;28;20109;-78
2020/12/23 12:21:03;;;;;;;37.15;23.65;;;;;;;;;;5058283;28;20021;-78
2020/12/23 12:23:29;;;;;;;43.38;26.10;;;;;;;;;;5058214;28;20418;-78
2020/12/23 12:25:55;;;;;;;37.67;21.65;;;;;;;;;;5058113;28;20025;-78
2020/12/23 12:28:21;;;;;;;70.32;31.90;;;;;;;;;;5058107;28;20029;-78
2020/12/23 12:30:47;;;;;;;80.35;35.85;;;;;;;;;;5040230;28;20044;-78
2020/12/23 12:33:15;;;;;;;40.40;24.65;;;;;;;;;;5040069;28;20127;-78
2020/12/23 12:35:42;;;;;;;50.10;28.77;;;;;;;;;;5057690;28;20410;-78
2020/12/23 12:38:08;;;;;;;70.35;33.70;;;;;;;;;;5058297;28;20045;-80
2020/12/23 12:40:34;;;;;;;139.73;51.47;;;;;;;;;;5058121;28;20311;-78
2020/12/23 12:43:03;;;;;;;216.38;74.63;;;;;;;;;;5039998;28;20496;-78
2020/12/23 12:45:33;;;;;;;53.30;29.67;;;;;;;;;;5040134;28;20087;-75
2020/12/23 12:47:59;;;;;;;83.75;36.65;;;;;;;;;;5057899;28;20044;-75
2020/12/23 12:50:25;;;;;;;93.65;44.22;;;;;;;;;;5057771;28;20032;-74
2020/12/23 12:52:51;;;;;;;196.18;71.72;;;;;;;;;;5057810;28;20324;-74
2020/12/23 12:55:18;;;;;;;92.35;39.88;;;;;;;;;;5057588;28;20024;-75
2020/12/23 12:57:44;;;;;;;77.88;40.85;;;;;;;;;;5057575;28;20060;-74
2020/12/23 13:00:10;;;;;;;61.22;36.65;;;;;;;;;;5057499;28;20028;-74
2020/12/23 13:02:36;;;;;;;127.32;53.63;;;;;;;;;;5057475;28;20030;-75
2020/12/23 13:05:04;;;;;;;55.47;34.15;;;;;;;;;;5057598;28;20051;-74
2020/12/23 13:07:30;;;;;;;107.57;46.70;;;;;;;;;;5057418;28;20078;-75
2020/12/23 13:09:56;;;;;;;171.40;66.72;;;;;;;;;;5057346;28;20032;-75
2020/12/23 13:12:22;;;;;;;141.82;59.30;;;;;;;;;;5057525;28;20529;-74
2020/12/23 13:14:48;;;;;;;252.15;93.55;;;;;;;;;;5062797;28;20433;-74
2020/12/23 13:17:15;;;;;;;422.77;146.70;;;;;;;;;;5092431;28;20338;-74
2020/12/23 13:19:41;;;;;;;75.55;39.20;;;;;;;;;;5097631;28;20032;-74
2020/12/23 13:22:07;;;;;;;102.25;44.85;;;;;;;;;;5097452;28;20024;-75
2020/12/23 13:24:33;;;;;;;177.32;75.35;;;;;;;;;;5097461;28;20027;-75
2020/12/23 13:26:59;;;;;;;161.30;63.20;;;;;;;;;;5097409;28;20322;-75
2020/12/23 13:29:25;;;;;;;64.10;36.10;;;;;;;;;;5097431;28;20100;-75
2020/12/23 13:31:51;;;;;;;61.25;35.72;;;;;;;;;;5097554;28;20024;-75
2020/12/23 13:34:20;;;;;;;57.70;33.55;;;;;;;;;;5097341;28;20107;-75
2020/12/23 13:36:51;;;;;;;86.07;46.58;;;;;;;;;;5097457;28;20098;-75
2020/12/23 13:39:17;;;;;;;57.35;31.27;;;;;;;;;;5097271;28;20031;-75
2020/12/23 13:41:46;;;;;;;68.38;38.38;;;;;;;;;;5097261;28;20059;-75
2020/12/23 13:44:12;;;;;;;88.15;44.47;;;;;;;;;;5097407;28;20061;-75
2020/12/23 13:46:38;;;;;;;71.70;36.00;;;;;;;;;;5097296;28;20142;-75
2020/12/23 13:49:04;;;;;;;193.10;88.90;;;;;;;;;;5096434;28;20027;-75
2020/12/23 13:51:30;;;;;;;551.50;276.80;;;;;;;;;;5097168;28;20031;-75
2020/12/23 13:53:56;;;;;;;681.20;353.48;;;;;;;;;;5096993;28;20123;-75
2020/12/23 13:56:23;;;;;;;108.35;54.50;;;;;;;;;;5097000;28;20416;-75
2020/12/23 13:58:49;;;;;;;269.00;121.88;;;;;;;;;;5097105;28;20020;-75
2020/12/23 14:01:15;;;;;;;88.97;48.38;;;;;;;;;;5097195;28;20056;-75
2020/12/23 14:03:42;;;;;;;721.75;373.20;;;;;;;;;;5096896;28;20028;-75
2020/12/23 14:06:09;;;;;;;98.93;56.15;;;;;;;;;;5097092;28;20020;-75
2020/12/23 14:08:35;;;;;;;70.22;39.58;;;;;;;;;;5096822;28;20024;-75
2020/12/23 14:11:01;;;;;;;80.95;44.40;;;;;;;;;;5096619;28;20414;-75
2020/12/23 14:13:27;;;;;;;135.15;72.35;;;;;;;;;;5097048;28;20032;-75
2020/12/23 14:15:54;;;;;;;90.25;51.10;;;;;;;;;;5096832;28;20085;-75
2020/12/23 14:18:20;;;;;;;77.72;44.95;;;;;;;;;;5078996;28;20120;-75
2020/12/23 14:20:50;;;;;;;93.30;54.17;;;;;;;;;;5079020;28;20028;-74